sensor_id;sensor_type;location;lat;lon;timestamp;temperature;humidity
79467;SHT30;68933;49.726;9.226;2023-08-08T00:00:54;15.7;66
79467;SHT30;68933;49.726;9.226;2023-08-08T00:03:07;15.6;67
79467;SHT30;68933;49.726;9.226;2023-08-08T00:05:20;15.6;67
79467;SHT30;68933;49.726;9.226;2023-08-08T00:07:33;15.6;67
79467;SHT30;68933;49.726;9.226;2023-08-08T00:09:46;15.6;67
79467;SHT30;68933;49.726;9.226;2023-08-08T00:11:59;15.6;67
79467;SHT30;68933;49.726;9.226;2023-08-08T00:14:12;15.5;67
79467;SHT30;68933;49.726;9.226;2023-08-08T00:16:25;15.5;67
79467;SHT30;68933;49.726;9.226;2023-08-08T00:18:38;15.5;68
79467;SHT30;68933;49.726;9.226;2023-08-08T00:20:51;15.5;68
79467;SHT30;68933;49.726;9.226;2023-08-08T00:23:04;15.5;68
79467;SHT30;68933;49.726;9.226;2023-08-08T00:25:17;15.5;68
79467;SHT30;68933;49.726;9.226;2023-08-08T00:27:30;15.5;68
79467;SHT30;68933;49.726;9.226;2023-08-08T00:29:43;15.5;68
79467;SHT30;68933;49.726;9.226;2023-08-08T00:31:56;15.5;68
79467;SHT30;68933;49.726;9.226;2023-08-08T00:34:09;15.5;68
79467;SHT30;68933;49.726;9.226;2023-08-08T00:36:22;15.5;68
79467;SHT30;68933;49.726;9.226;2023-08-08T00:38:35;15.5;68
79467;SHT30;68933;49.726;9.226;2023-08-08T00:40:48;15.5;68
79467;SHT30;68933;49.726;9.226;2023-08-08T00:43:01;15.5;68
79467;SHT30;68933;49.726;9.226;2023-08-08T00:45:14;15.5;67
79467;SHT30;68933;49.726;9.226;2023-08-08T00:47:27;15.5;67
79467;SHT30;68933;49.726;9.226;2023-08-08T00:49:40;15.5;68
79467;SHT30;68933;49.726;9.226;2023-08-08T00:51:53;15.5;68
79467;SHT30;68933;49.726;9.226;2023-08-08T00:54:06;15.4;68
79467;SHT30;68933;49.726;9.226;2023-08-08T00:56:19;15.4;68
79467;SHT30;68933;49.726;9.226;2023-08-08T00:58:32;15.4;68
79467;SHT30;68933;49.726;9.226;2023-08-08T01:00:45;15.4;68
79467;SHT30;68933;49.726;9.226;2023-08-08T01:02:58;15.4;68
79467;SHT30;68933;49.726;9.226;2023-08-08T01:05:11;15.4;68
79467;SHT30;68933;49.726;9.226;2023-08-08T01:07:25;15.4;68
79467;SHT30;68933;49.726;9.226;2023-08-08T01:09:38;15.4;69
79467;SHT30;68933;49.726;9.226;2023-08-08T01:11:50;15.4;69
79467;SHT30;68933;49.726;9.226;2023-08-08T01:14:03;15.4;69
79467;SHT30;68933;49.726;9.226;2023-08-08T01:16:16;15.4;69
79467;SHT30;68933;49.726;9.226;2023-08-08T01:18:29;15.4;69
79467;SHT30;68933;49.726;9.226;2023-08-08T01:20:43;15.4;69
79467;SHT30;68933;49.726;9.226;2023-08-08T01:22:56;15.4;69
79467;SHT30;68933;49.726;9.226;2023-08-08T01:25:08;15.3;69
79467;SHT30;68933;49.726;9.226;2023-08-08T01:27:21;15.3;69
79467;SHT30;68933;49.726;9.226;2023-08-08T01:29:34;15.3;69
79467;SHT30;68933;49.726;9.226;2023-08-08T01:31:47;15.3;69
79467;SHT30;68933;49.726;9.226;2023-08-08T01:34:00;15.2;69
79467;SHT30;68933;49.726;9.226;2023-08-08T01:36:15;15.2;69
79467;SHT30;68933;49.726;9.226;2023-08-08T01:38:28;15.2;69
79467;SHT30;68933;49.726;9.226;2023-08-08T01:40:39;15.2;69
79467;SHT30;68933;49.726;9.226;2023-08-08T01:42:52;15.2;69
79467;SHT30;68933;49.726;9.226;2023-08-08T01:45:05;15.2;68
79467;SHT30;68933;49.726;9.226;2023-08-08T01:47:18;15.2;68
79467;SHT30;68933;49.726;9.226;2023-08-08T01:49:31;15.2;69
79467;SHT30;68933;49.726;9.226;2023-08-08T01:51:44;15.2;69
79467;SHT30;68933;49.726;9.226;2023-08-08T01:53:57;15.1;69
79467;SHT30;68933;49.726;9.226;2023-08-08T01:56:10;15.1;69
79467;SHT30;68933;49.726;9.226;2023-08-08T01:58:23;15.1;69
79467;SHT30;68933;49.726;9.226;2023-08-08T02:00:36;15.1;69
79467;SHT30;68933;49.726;9.226;2023-08-08T02:02:49;15.1;69
79467;SHT30;68933;49.726;9.226;2023-08-08T02:05:02;14.9;69
79467;SHT30;68933;49.726;9.226;2023-08-08T02:07:15;14.9;69
79467;SHT30;68933;49.726;9.226;2023-08-08T02:09:28;14.9;69
79467;SHT30;68933;49.726;9.226;2023-08-08T02:11:41;14.9;69
79467;SHT30;68933;49.726;9.226;2023-08-08T02:13:54;14.7;70
79467;SHT30;68933;49.726;9.226;2023-08-08T02:16:07;14.7;70
79467;SHT30;68933;49.726;9.226;2023-08-08T02:18:20;14.7;70
79467;SHT30;68933;49.726;9.226;2023-08-08T02:20:33;14.7;70
79467;SHT30;68933;49.726;9.226;2023-08-08T02:22:46;14.7;70
79467;SHT30;68933;49.726;9.226;2023-08-08T02:24:59;14.6;70
79467;SHT30;68933;49.726;9.226;2023-08-08T02:27:12;14.6;70
79467;SHT30;68933;49.726;9.226;2023-08-08T02:29:25;14.5;70
79467;SHT30;68933;49.726;9.226;2023-08-08T02:31:38;14.5;70
79467;SHT30;68933;49.726;9.226;2023-08-08T02:33:51;14.5;72
79467;SHT30;68933;49.726;9.226;2023-08-08T02:36:04;14.5;72
79467;SHT30;68933;49.726;9.226;2023-08-08T02:38:17;14.3;72
79467;SHT30;68933;49.726;9.226;2023-08-08T02:40:30;14.3;72
79467;SHT30;68933;49.726;9.226;2023-08-08T02:42:43;14.3;72
79467;SHT30;68933;49.726;9.226;2023-08-08T02:44:56;14.3;72
79467;SHT30;68933;49.726;9.226;2023-08-08T02:47:09;14.3;72
79467;SHT30;68933;49.726;9.226;2023-08-08T02:49:22;14.2;72
79467;SHT30;68933;49.726;9.226;2023-08-08T02:51:35;14.2;72
79467;SHT30;68933;49.726;9.226;2023-08-08T02:53:48;14.1;72
79467;SHT30;68933;49.726;9.226;2023-08-08T02:56:01;14.1;72
79467;SHT30;68933;49.726;9.226;2023-08-08T02:58:14;14.1;72
79467;SHT30;68933;49.726;9.226;2023-08-08T03:00:27;14.1;72
79467;SHT30;68933;49.726;9.226;2023-08-08T03:02:40;14.1;72
79467;SHT30;68933;49.726;9.226;2023-08-08T03:04:53;14;73
79467;SHT30;68933;49.726;9.226;2023-08-08T03:07:06;14;73
79467;SHT30;68933;49.726;9.226;2023-08-08T03:09:19;14;73
79467;SHT30;68933;49.726;9.226;2023-08-08T03:11:32;14;73
79467;SHT30;68933;49.726;9.226;2023-08-08T03:13:45;14;73
79467;SHT30;68933;49.726;9.226;2023-08-08T03:15:58;13.9;73
79467;SHT30;68933;49.726;9.226;2023-08-08T03:18:11;13.9;73
79467;SHT30;68933;49.726;9.226;2023-08-08T03:20:24;13.9;73
79467;SHT30;68933;49.726;9.226;2023-08-08T03:22:37;13.9;73
79467;SHT30;68933;49.726;9.226;2023-08-08T03:24:50;13.9;73
79467;SHT30;68933;49.726;9.226;2023-08-08T03:27:03;13.9;73
79467;SHT30;68933;49.726;9.226;2023-08-08T03:29:16;13.9;73
79467;SHT30;68933;49.726;9.226;2023-08-08T03:31:29;13.9;73
79467;SHT30;68933;49.726;9.226;2023-08-08T03:33:42;13.9;73
79467;SHT30;68933;49.726;9.226;2023-08-08T03:35:55;13.9;73
79467;SHT30;68933;49.726;9.226;2023-08-08T03:38:08;13.8;73
79467;SHT30;68933;49.726;9.226;2023-08-08T03:40:21;13.8;73
79467;SHT30;68933;49.726;9.226;2023-08-08T03:42:34;13.8;73
79467;SHT30;68933;49.726;9.226;2023-08-08T03:44:47;13.8;73
79467;SHT30;68933;49.726;9.226;2023-08-08T03:47:00;13.8;73
79467;SHT30;68933;49.726;9.226;2023-08-08T03:49:13;13.7;74
79467;SHT30;68933;49.726;9.226;2023-08-08T03:51:26;13.7;74
79467;SHT30;68933;49.726;9.226;2023-08-08T03:53:39;13.6;74
79467;SHT30;68933;49.726;9.226;2023-08-08T03:55:52;13.6;74
79467;SHT30;68933;49.726;9.226;2023-08-08T03:58:05;13.6;74
79467;SHT30;68933;49.726;9.226;2023-08-08T04:00:18;13.6;74
79467;SHT30;68933;49.726;9.226;2023-08-08T04:02:32;13.6;74
79467;SHT30;68933;49.726;9.226;2023-08-08T04:04:44;13.5;74
79467;SHT30;68933;49.726;9.226;2023-08-08T04:06:57;13.5;74
79467;SHT30;68933;49.726;9.226;2023-08-08T04:09:10;13.5;74
79467;SHT30;68933;49.726;9.226;2023-08-08T04:11:23;13.5;74
79467;SHT30;68933;49.726;9.226;2023-08-08T04:13:36;13.5;74
79467;SHT30;68933;49.726;9.226;2023-08-08T04:15:49;13.5;74
79467;SHT30;68933;49.726;9.226;2023-08-08T04:18:02;13.4;74
79467;SHT30;68933;49.726;9.226;2023-08-08T04:20:15;13.4;74
79467;SHT30;68933;49.726;9.226;2023-08-08T04:22:28;13.4;74
79467;SHT30;68933;49.726;9.226;2023-08-08T04:24:41;13.3;76
79467;SHT30;68933;49.726;9.226;2023-08-08T04:26:54;13.3;76
79467;SHT30;68933;49.726;9.226;2023-08-08T04:29:07;13.3;76
79467;SHT30;68933;49.726;9.226;2023-08-08T04:31:20;13.3;76
79467;SHT30;68933;49.726;9.226;2023-08-08T04:33:33;13.3;76
79467;SHT30;68933;49.726;9.226;2023-08-08T04:35:46;13.3;76
79467;SHT30;68933;49.726;9.226;2023-08-08T04:37:59;13.3;76
79467;SHT30;68933;49.726;9.226;2023-08-08T04:40:12;13.3;76
79467;SHT30;68933;49.726;9.226;2023-08-08T04:42:25;13.3;76
79467;SHT30;68933;49.726;9.226;2023-08-08T04:44:38;13.3;76
79467;SHT30;68933;49.726;9.226;2023-08-08T04:46:51;13.3;76
79467;SHT30;68933;49.726;9.226;2023-08-08T04:49:04;13.2;76
79467;SHT30;68933;49.726;9.226;2023-08-08T04:51:17;13.2;76
79467;SHT30;68933;49.726;9.226;2023-08-08T04:53:31;13.3;76
79467;SHT30;68933;49.726;9.226;2023-08-08T04:55:43;13.3;76
79467;SHT30;68933;49.726;9.226;2023-08-08T04:57:56;13.3;76
79467;SHT30;68933;49.726;9.226;2023-08-08T05:00:10;13.3;76
79467;SHT30;68933;49.726;9.226;2023-08-08T05:02:22;13.3;76
79467;SHT30;68933;49.726;9.226;2023-08-08T05:04:35;13.3;76
79467;SHT30;68933;49.726;9.226;2023-08-08T05:06:48;13.3;76
79467;SHT30;68933;49.726;9.226;2023-08-08T05:09:01;13.4;76
79467;SHT30;68933;49.726;9.226;2023-08-08T05:11:14;13.4;76
79467;SHT30;68933;49.726;9.226;2023-08-08T05:13:28;13.4;76
79467;SHT30;68933;49.726;9.226;2023-08-08T05:15:40;13.4;76
79467;SHT30;68933;49.726;9.226;2023-08-08T05:17:54;13.4;76
79467;SHT30;68933;49.726;9.226;2023-08-08T05:20:07;13.4;76
79467;SHT30;68933;49.726;9.226;2023-08-08T05:22:19;13.4;76
79467;SHT30;68933;49.726;9.226;2023-08-08T05:24:32;13.4;76
79467;SHT30;68933;49.726;9.226;2023-08-08T05:26:45;13.4;76
79467;SHT30;68933;49.726;9.226;2023-08-08T05:28:58;13.5;76
79467;SHT30;68933;49.726;9.226;2023-08-08T05:31:11;13.5;76
79467;SHT30;68933;49.726;9.226;2023-08-08T05:33:24;13.6;74
79467;SHT30;68933;49.726;9.226;2023-08-08T05:35:37;13.6;74
79467;SHT30;68933;49.726;9.226;2023-08-08T05:37:50;13.7;74
79467;SHT30;68933;49.726;9.226;2023-08-08T05:40:04;13.7;74
79467;SHT30;68933;49.726;9.226;2023-08-08T05:42:16;13.8;74
79467;SHT30;68933;49.726;9.226;2023-08-08T05:44:29;13.8;74
79467;SHT30;68933;49.726;9.226;2023-08-08T05:46:42;13.8;74
79467;SHT30;68933;49.726;9.226;2023-08-08T05:48:56;13.8;74
79467;SHT30;68933;49.726;9.226;2023-08-08T05:51:08;13.8;74
79467;SHT30;68933;49.726;9.226;2023-08-08T05:53:21;13.9;74
79467;SHT30;68933;49.726;9.226;2023-08-08T05:55:35;13.9;74
79467;SHT30;68933;49.726;9.226;2023-08-08T05:57:47;14;74
79467;SHT30;68933;49.726;9.226;2023-08-08T06:00:00;14;74
79467;SHT30;68933;49.726;9.226;2023-08-08T06:02:13;14;74
79467;SHT30;68933;49.726;9.226;2023-08-08T06:04:27;14.1;74
79467;SHT30;68933;49.726;9.226;2023-08-08T06:06:39;14.1;74
79467;SHT30;68933;49.726;9.226;2023-08-08T06:08:53;14.2;74
79467;SHT30;68933;49.726;9.226;2023-08-08T06:11:06;14.2;74
79467;SHT30;68933;49.726;9.226;2023-08-08T06:13:18;14.3;74
79467;SHT30;68933;49.726;9.226;2023-08-08T06:15:32;14.3;74
79467;SHT30;68933;49.726;9.226;2023-08-08T06:17:45;14.3;74
79467;SHT30;68933;49.726;9.226;2023-08-08T06:19:58;14.5;74
79467;SHT30;68933;49.726;9.226;2023-08-08T06:22:11;14.5;74
79467;SHT30;68933;49.726;9.226;2023-08-08T06:24:24;14.7;73
79467;SHT30;68933;49.726;9.226;2023-08-08T06:26:37;14.7;73
79467;SHT30;68933;49.726;9.226;2023-08-08T06:28:50;14.7;73
79467;SHT30;68933;49.726;9.226;2023-08-08T06:31:03;14.8;73
79467;SHT30;68933;49.726;9.226;2023-08-08T06:33:16;14.8;73
79467;SHT30;68933;49.726;9.226;2023-08-08T06:35:29;15.1;73
79467;SHT30;68933;49.726;9.226;2023-08-08T06:37:42;15.1;73
79467;SHT30;68933;49.726;9.226;2023-08-08T06:39:55;15.3;71
79467;SHT30;68933;49.726;9.226;2023-08-08T06:42:08;15.3;71
79467;SHT30;68933;49.726;9.226;2023-08-08T06:44:21;15.3;71
79467;SHT30;68933;49.726;9.226;2023-08-08T06:46:34;15.5;70
79467;SHT30;68933;49.726;9.226;2023-08-08T06:48:47;15.5;70
79467;SHT30;68933;49.726;9.226;2023-08-08T06:51:00;15.6;70
79467;SHT30;68933;49.726;9.226;2023-08-08T06:53:13;15.6;70
79467;SHT30;68933;49.726;9.226;2023-08-08T06:55:26;16;69
79467;SHT30;68933;49.726;9.226;2023-08-08T06:57:39;16;69
79467;SHT30;68933;49.726;9.226;2023-08-08T06:59:52;16.1;67
79467;SHT30;68933;49.726;9.226;2023-08-08T07:02:05;16.3;67
79467;SHT30;68933;49.726;9.226;2023-08-08T07:04:18;16.3;67
79467;SHT30;68933;49.726;9.226;2023-08-08T07:06:31;16.4;66
79467;SHT30;68933;49.726;9.226;2023-08-08T07:08:44;16.4;66
79467;SHT30;68933;49.726;9.226;2023-08-08T07:10:57;16.7;65
79467;SHT30;68933;49.726;9.226;2023-08-08T07:13:10;16.7;65
79467;SHT30;68933;49.726;9.226;2023-08-08T07:15:23;16.7;65
79467;SHT30;68933;49.726;9.226;2023-08-08T07:17:36;16.9;63
79467;SHT30;68933;49.726;9.226;2023-08-08T07:19:49;16.9;63
79467;SHT30;68933;49.726;9.226;2023-08-08T07:22:02;17;62
79467;SHT30;68933;49.726;9.226;2023-08-08T07:24:15;17;62
79467;SHT30;68933;49.726;9.226;2023-08-08T07:26:28;17.3;61
79467;SHT30;68933;49.726;9.226;2023-08-08T07:28:41;17.3;61
79467;SHT30;68933;49.726;9.226;2023-08-08T07:30:54;17.3;61
79467;SHT30;68933;49.726;9.226;2023-08-08T07:33:07;17.5;61
79467;SHT30;68933;49.726;9.226;2023-08-08T07:35:20;17.5;61
79467;SHT30;68933;49.726;9.226;2023-08-08T07:37:33;17.6;59
79467;SHT30;68933;49.726;9.226;2023-08-08T07:39:46;17.6;59
79467;SHT30;68933;49.726;9.226;2023-08-08T07:41:59;17.8;59
79467;SHT30;68933;49.726;9.226;2023-08-08T07:44:12;17.8;59
79467;SHT30;68933;49.726;9.226;2023-08-08T07:46:25;17.9;57
79467;SHT30;68933;49.726;9.226;2023-08-08T07:48:38;17.9;57
79467;SHT30;68933;49.726;9.226;2023-08-08T07:50:51;18.1;57
79467;SHT30;68933;49.726;9.226;2023-08-08T07:53:04;18.1;57
79467;SHT30;68933;49.726;9.226;2023-08-08T07:55:17;18.1;57
79467;SHT30;68933;49.726;9.226;2023-08-08T07:57:30;18.4;55
79467;SHT30;68933;49.726;9.226;2023-08-08T07:59:43;18.4;55
79467;SHT30;68933;49.726;9.226;2023-08-08T08:01:56;18.6;54
79467;SHT30;68933;49.726;9.226;2023-08-08T08:04:09;18.6;54
79467;SHT30;68933;49.726;9.226;2023-08-08T08:06:22;18.8;54
79467;SHT30;68933;49.726;9.226;2023-08-08T08:08:35;18.8;54
79467;SHT30;68933;49.726;9.226;2023-08-08T08:10:48;19.1;53
79467;SHT30;68933;49.726;9.226;2023-08-08T08:13:01;19.1;53
79467;SHT30;68933;49.726;9.226;2023-08-08T08:15:14;19.1;53
79467;SHT30;68933;49.726;9.226;2023-08-08T08:17:27;19.3;50
79467;SHT30;68933;49.726;9.226;2023-08-08T08:19:40;19.3;50
79467;SHT30;68933;49.726;9.226;2023-08-08T08:21:53;19.4;50
79467;SHT30;68933;49.726;9.226;2023-08-08T08:24:06;19.4;50
79467;SHT30;68933;49.726;9.226;2023-08-08T08:26:19;19.7;50
79467;SHT30;68933;49.726;9.226;2023-08-08T08:28:32;19.7;50
79467;SHT30;68933;49.726;9.226;2023-08-08T08:30:45;19.9;50
79467;SHT30;68933;49.726;9.226;2023-08-08T08:32:58;19.9;50
79467;SHT30;68933;49.726;9.226;2023-08-08T08:35:11;19.9;50
79467;SHT30;68933;49.726;9.226;2023-08-08T08:37:24;20.1;49
79467;SHT30;68933;49.726;9.226;2023-08-08T08:39:37;20.1;49
79467;SHT30;68933;49.726;9.226;2023-08-08T08:41:58;20.3;47
79467;SHT30;68933;49.726;9.226;2023-08-08T08:44:03;20.3;47
79467;SHT30;68933;49.726;9.226;2023-08-08T08:46:16;20.4;47
79467;SHT30;68933;49.726;9.226;2023-08-08T08:48:29;20.4;47
79467;SHT30;68933;49.726;9.226;2023-08-08T08:50:42;20.8;47
79467;SHT30;68933;49.726;9.226;2023-08-08T08:52:55;20.8;47
79467;SHT30;68933;49.726;9.226;2023-08-08T08:55:08;20.9;46
79467;SHT30;68933;49.726;9.226;2023-08-08T08:57:21;20.9;46
79467;SHT30;68933;49.726;9.226;2023-08-08T08:59:34;20.9;45
79467;SHT30;68933;49.726;9.226;2023-08-08T09:01:47;20.9;45
79467;SHT30;68933;49.726;9.226;2023-08-08T09:04:00;20.9;45
79467;SHT30;68933;49.726;9.226;2023-08-08T09:06:13;21.1;46
79467;SHT30;68933;49.726;9.226;2023-08-08T09:08:26;21.1;46
79467;SHT30;68933;49.726;9.226;2023-08-08T09:10:39;21.2;46
79467;SHT30;68933;49.726;9.226;2023-08-08T09:12:52;21.2;46
79467;SHT30;68933;49.726;9.226;2023-08-08T09:15:05;21.2;46
79467;SHT30;68933;49.726;9.226;2023-08-08T09:17:18;21.2;46
79467;SHT30;68933;49.726;9.226;2023-08-08T09:19:31;21.2;46
79467;SHT30;68933;49.726;9.226;2023-08-08T09:21:44;21.3;45
79467;SHT30;68933;49.726;9.226;2023-08-08T09:23:57;21.3;45
79467;SHT30;68933;49.726;9.226;2023-08-08T09:26:12;21.3;45
79467;SHT30;68933;49.726;9.226;2023-08-08T09:28:23;21.4;45
79467;SHT30;68933;49.726;9.226;2023-08-08T09:30:36;21.4;45
79467;SHT30;68933;49.726;9.226;2023-08-08T09:32:49;21.6;45
79467;SHT30;68933;49.726;9.226;2023-08-08T09:35:02;21.6;45
79467;SHT30;68933;49.726;9.226;2023-08-08T09:37:15;21.6;45
79467;SHT30;68933;49.726;9.226;2023-08-08T09:39:28;21.7;45
79467;SHT30;68933;49.726;9.226;2023-08-08T09:41:41;21.7;45
79467;SHT30;68933;49.726;9.226;2023-08-08T09:43:54;21.6;45
79467;SHT30;68933;49.726;9.226;2023-08-08T09:46:08;21.6;45
79467;SHT30;68933;49.726;9.226;2023-08-08T09:48:20;22;45
79467;SHT30;68933;49.726;9.226;2023-08-08T09:50:33;22;45
79467;SHT30;68933;49.726;9.226;2023-08-08T09:52:46;22;45
79467;SHT30;68933;49.726;9.226;2023-08-08T09:54:59;22.2;45
79467;SHT30;68933;49.726;9.226;2023-08-08T09:57:12;22.2;45
79467;SHT30;68933;49.726;9.226;2023-08-08T09:59:25;22.4;45
79467;SHT30;68933;49.726;9.226;2023-08-08T10:01:38;22.4;45
79467;SHT30;68933;49.726;9.226;2023-08-08T10:03:51;22.7;43
79467;SHT30;68933;49.726;9.226;2023-08-08T10:06:04;22.7;43
79467;SHT30;68933;49.726;9.226;2023-08-08T10:08:17;22.7;43
79467;SHT30;68933;49.726;9.226;2023-08-08T10:10:30;22.8;43
79467;SHT30;68933;49.726;9.226;2023-08-08T10:12:43;22.8;43
79467;SHT30;68933;49.726;9.226;2023-08-08T10:14:56;23;42
79467;SHT30;68933;49.726;9.226;2023-08-08T10:17:12;23;42
79467;SHT30;68933;49.726;9.226;2023-08-08T10:19:22;23;43
79467;SHT30;68933;49.726;9.226;2023-08-08T10:21:36;23;43
79467;SHT30;68933;49.726;9.226;2023-08-08T10:23:48;23;43
79467;SHT30;68933;49.726;9.226;2023-08-08T10:26:01;23.1;42
79467;SHT30;68933;49.726;9.226;2023-08-08T10:28:15;23.1;42
79467;SHT30;68933;49.726;9.226;2023-08-08T10:30:27;23.1;41
79467;SHT30;68933;49.726;9.226;2023-08-08T10:32:40;23.1;41
79467;SHT30;68933;49.726;9.226;2023-08-08T10:34:54;23.1;42
79467;SHT30;68933;49.726;9.226;2023-08-08T10:37:08;23.1;42
79467;SHT30;68933;49.726;9.226;2023-08-08T10:39:19;23.1;42
79467;SHT30;68933;49.726;9.226;2023-08-08T10:41:32;23.1;42
79467;SHT30;68933;49.726;9.226;2023-08-08T10:43:47;23.1;42
79467;SHT30;68933;49.726;9.226;2023-08-08T10:45:58;23.2;42
79467;SHT30;68933;49.726;9.226;2023-08-08T10:48:11;23.2;42
79467;SHT30;68933;49.726;9.226;2023-08-08T10:50:24;23.2;42
79467;SHT30;68933;49.726;9.226;2023-08-08T10:52:38;23.2;42
79467;SHT30;68933;49.726;9.226;2023-08-08T10:54:51;23.2;42
79467;SHT30;68933;49.726;9.226;2023-08-08T10:57:03;23.2;42
79467;SHT30;68933;49.726;9.226;2023-08-08T10:59:17;23.2;42
79467;SHT30;68933;49.726;9.226;2023-08-08T11:01:29;23.5;42
79467;SHT30;68933;49.726;9.226;2023-08-08T11:03:43;23.5;42
79467;SHT30;68933;49.726;9.226;2023-08-08T11:05:55;23.5;41
79467;SHT30;68933;49.726;9.226;2023-08-08T11:08:08;23.5;41
79467;SHT30;68933;49.726;9.226;2023-08-08T11:10:21;23.7;41
79467;SHT30;68933;49.726;9.226;2023-08-08T11:12:34;23.7;41
79467;SHT30;68933;49.726;9.226;2023-08-08T11:14:47;23.7;41
79467;SHT30;68933;49.726;9.226;2023-08-08T11:17:00;23.6;41
79467;SHT30;68933;49.726;9.226;2023-08-08T11:19:13;23.6;41
79467;SHT30;68933;49.726;9.226;2023-08-08T11:21:26;24;39
79467;SHT30;68933;49.726;9.226;2023-08-08T11:23:39;24;39
79467;SHT30;68933;49.726;9.226;2023-08-08T11:25:52;24;39
79467;SHT30;68933;49.726;9.226;2023-08-08T11:28:05;24.1;39
79467;SHT30;68933;49.726;9.226;2023-08-08T11:30:18;24.1;39
79467;SHT30;68933;49.726;9.226;2023-08-08T11:32:31;24.4;38
79467;SHT30;68933;49.726;9.226;2023-08-08T11:34:45;24.4;38
79467;SHT30;68933;49.726;9.226;2023-08-08T11:36:57;24.7;38
79467;SHT30;68933;49.726;9.226;2023-08-08T11:39:10;24.7;38
79467;SHT30;68933;49.726;9.226;2023-08-08T11:41:23;24.7;38
79467;SHT30;68933;49.726;9.226;2023-08-08T11:43:36;24.7;37
79467;SHT30;68933;49.726;9.226;2023-08-08T11:45:49;24.7;37
79467;SHT30;68933;49.726;9.226;2023-08-08T11:48:02;24.6;37
79467;SHT30;68933;49.726;9.226;2023-08-08T11:50:15;24.6;37
79467;SHT30;68933;49.726;9.226;2023-08-08T11:52:28;24.6;37
79467;SHT30;68933;49.726;9.226;2023-08-08T11:54:41;24.6;37
79467;SHT30;68933;49.726;9.226;2023-08-08T11:56:54;24.6;37
79467;SHT30;68933;49.726;9.226;2023-08-08T11:59:07;24.5;37
79467;SHT30;68933;49.726;9.226;2023-08-08T12:01:21;24.5;37
79467;SHT30;68933;49.726;9.226;2023-08-08T12:03:34;24.5;37
79467;SHT30;68933;49.726;9.226;2023-08-08T12:05:46;24.5;37
79467;SHT30;68933;49.726;9.226;2023-08-08T12:07:59;24.5;37
79467;SHT30;68933;49.726;9.226;2023-08-08T12:10:13;24.7;38
79467;SHT30;68933;49.726;9.226;2023-08-08T12:12:25;24.7;38
79467;SHT30;68933;49.726;9.226;2023-08-08T12:14:38;24.9;37
79467;SHT30;68933;49.726;9.226;2023-08-08T12:16:51;24.9;37
79467;SHT30;68933;49.726;9.226;2023-08-08T12:19:06;25.1;37
79467;SHT30;68933;49.726;9.226;2023-08-08T12:21:17;25.1;37
79467;SHT30;68933;49.726;9.226;2023-08-08T12:23:30;25.1;37
79467;SHT30;68933;49.726;9.226;2023-08-08T12:25:43;25.2;37
79467;SHT30;68933;49.726;9.226;2023-08-08T12:27:56;25.2;37
79467;SHT30;68933;49.726;9.226;2023-08-08T12:30:09;25.4;35
79467;SHT30;68933;49.726;9.226;2023-08-08T12:32:24;25.4;35
79467;SHT30;68933;49.726;9.226;2023-08-08T12:34:35;25.1;35
79467;SHT30;68933;49.726;9.226;2023-08-08T12:36:48;25.1;35
79467;SHT30;68933;49.726;9.226;2023-08-08T12:39:01;25.1;35
79467;SHT30;68933;49.726;9.226;2023-08-08T12:41:14;25;35
79467;SHT30;68933;49.726;9.226;2023-08-08T12:43:27;25;35
79467;SHT30;68933;49.726;9.226;2023-08-08T12:45:40;25;37
79467;SHT30;68933;49.726;9.226;2023-08-08T12:47:53;25;37
79467;SHT30;68933;49.726;9.226;2023-08-08T12:50:06;25.1;35
79467;SHT30;68933;49.726;9.226;2023-08-08T12:52:19;25.1;35
79467;SHT30;68933;49.726;9.226;2023-08-08T12:54:32;25.2;35
79467;SHT30;68933;49.726;9.226;2023-08-08T12:56:45;25.2;35
79467;SHT30;68933;49.726;9.226;2023-08-08T12:58:58;25.2;35
79467;SHT30;68933;49.726;9.226;2023-08-08T13:01:11;25.6;35
79467;SHT30;68933;49.726;9.226;2023-08-08T13:03:24;25.6;35
79467;SHT30;68933;49.726;9.226;2023-08-08T13:05:37;25.7;35
79467;SHT30;68933;49.726;9.226;2023-08-08T13:07:50;25.7;35
79467;SHT30;68933;49.726;9.226;2023-08-08T13:10:03;25.6;34
79467;SHT30;68933;49.726;9.226;2023-08-08T13:12:16;25.6;34
79467;SHT30;68933;49.726;9.226;2023-08-08T13:14:29;25.5;34
79467;SHT30;68933;49.726;9.226;2023-08-08T13:16:42;25.5;34
79467;SHT30;68933;49.726;9.226;2023-08-08T13:18:55;25.4;34
79467;SHT30;68933;49.726;9.226;2023-08-08T13:21:08;25.4;34
79467;SHT30;68933;49.726;9.226;2023-08-08T13:23:21;25.4;34
79467;SHT30;68933;49.726;9.226;2023-08-08T13:25:34;25.4;34
79467;SHT30;68933;49.726;9.226;2023-08-08T13:27:47;25.4;34
79467;SHT30;68933;49.726;9.226;2023-08-08T13:30:00;25.3;34
79467;SHT30;68933;49.726;9.226;2023-08-08T13:32:13;25.3;34
79467;SHT30;68933;49.726;9.226;2023-08-08T13:34:26;25.2;33
79467;SHT30;68933;49.726;9.226;2023-08-08T13:36:39;25.2;33
79467;SHT30;68933;49.726;9.226;2023-08-08T13:38:52;24.9;34
79467;SHT30;68933;49.726;9.226;2023-08-08T13:41:05;24.9;34
79467;SHT30;68933;49.726;9.226;2023-08-08T13:43:18;24.9;34
79467;SHT30;68933;49.726;9.226;2023-08-08T13:45:31;25.1;34
79467;SHT30;68933;49.726;9.226;2023-08-08T13:47:44;25.1;34
79467;SHT30;68933;49.726;9.226;2023-08-08T13:49:57;25.1;33
79467;SHT30;68933;49.726;9.226;2023-08-08T13:52:10;25.1;33
79467;SHT30;68933;49.726;9.226;2023-08-08T13:54:23;25.2;33
79467;SHT30;68933;49.726;9.226;2023-08-08T13:56:36;25.2;33
79467;SHT30;68933;49.726;9.226;2023-08-08T13:58:49;25.3;33
79467;SHT30;68933;49.726;9.226;2023-08-08T14:01:02;25.3;33
79467;SHT30;68933;49.726;9.226;2023-08-08T14:03:15;25.3;33
79467;SHT30;68933;49.726;9.226;2023-08-08T14:05:28;25.3;33
79467;SHT30;68933;49.726;9.226;2023-08-08T14:07:41;25.3;33
79467;SHT30;68933;49.726;9.226;2023-08-08T14:09:54;25.1;34
79467;SHT30;68933;49.726;9.226;2023-08-08T14:12:07;25.1;34
79467;SHT30;68933;49.726;9.226;2023-08-08T14:14:20;25.1;34
79467;SHT30;68933;49.726;9.226;2023-08-08T14:16:33;25.1;34
79467;SHT30;68933;49.726;9.226;2023-08-08T14:18:46;25.1;34
79467;SHT30;68933;49.726;9.226;2023-08-08T14:20:59;24.8;34
79467;SHT30;68933;49.726;9.226;2023-08-08T14:23:12;24.8;34
79467;SHT30;68933;49.726;9.226;2023-08-08T14:25:25;24.8;34
79467;SHT30;68933;49.726;9.226;2023-08-08T14:27:38;24.8;33
79467;SHT30;68933;49.726;9.226;2023-08-08T14:29:51;24.8;33
79467;SHT30;68933;49.726;9.226;2023-08-08T14:32:04;24.4;34
79467;SHT30;68933;49.726;9.226;2023-08-08T14:34:17;24.4;34
79467;SHT30;68933;49.726;9.226;2023-08-08T14:36:30;24.2;34
79467;SHT30;68933;49.726;9.226;2023-08-08T14:38:43;24.2;34
79467;SHT30;68933;49.726;9.226;2023-08-08T14:40:56;24.2;34
79467;SHT30;68933;49.726;9.226;2023-08-08T14:43:09;24;35
79467;SHT30;68933;49.726;9.226;2023-08-08T14:45:22;24;35
79467;SHT30;68933;49.726;9.226;2023-08-08T14:47:35;23.8;35
79467;SHT30;68933;49.726;9.226;2023-08-08T14:49:48;23.8;35
79467;SHT30;68933;49.726;9.226;2023-08-08T14:52:01;23.8;35
79467;SHT30;68933;49.726;9.226;2023-08-08T14:54:14;23.7;36
79467;SHT30;68933;49.726;9.226;2023-08-08T14:56:27;23.7;36
79467;SHT30;68933;49.726;9.226;2023-08-08T14:58:40;23.5;37